Time;durP1;ratioP1;P1;durP2;ratioP2;P2;SDS_P1;SDS_P2;PMS_P1;PMS_P2;Temp;Humidity;BMP_temperature;BMP_pressure;BME280_temperature;BME280_humidity;BME280_pressure;Samples;Min_cycle;Max_cycle;Signal;HPM_P1;HPM_P2
2023/02/18 00:00:16;;;;;;;0.30;0.30;;;8.40;99.90;;;;;;5037292;28;20839;-86
2023/02/18 00:02:43;;;;;;;2.40;1.20;;;8.40;99.90;;;;;;5071567;28;20197;-84
2023/02/18 00:05:09;;;;;;;2.73;0.80;;;8.40;99.90;;;;;;5053817;28;20190;-90
2023/02/18 00:07:36;;;;;;;0.30;0.30;;;8.50;99.90;;;;;;5053799;28;20234;-84
2023/02/18 00:10:05;;;;;;;1.43;1.33;;;8.50;99.90;;;;;;5053792;28;20182;-86
2023/02/18 00:12:32;;;;;;;3.60;2.80;;;8.40;99.90;;;;;;5071111;28;20181;-84
2023/02/18 00:14:58;;;;;;;2.70;1.97;;;8.50;99.90;;;;;;5053358;28;20519;-88
2023/02/18 00:17:24;;;;;;;2.03;1.83;;;8.40;99.90;;;;;;5020609;28;20189;-84
2023/02/18 00:19:50;;;;;;;1.20;1.13;;;8.40;99.90;;;;;;5053468;28;20780;-85
2023/02/18 00:22:16;;;;;;;2.27;0.50;;;8.40;99.90;;;;;;5053281;28;20310;-86
2023/02/18 00:24:42;;;;;;;9.20;1.23;;;8.40;99.90;;;;;;5053161;28;20293;-87
2023/02/18 00:27:08;;;;;;;7.47;0.67;;;8.40;99.90;;;;;;5020186;28;20181;-88
2023/02/18 00:29:33;;;;;;;2.13;1.17;;;8.30;99.90;;;;;;5052440;28;20317;-84
2023/02/18 00:31:59;;;;;;;1.23;1.13;;;8.30;99.90;;;;;;5052934;28;20195;-84
2023/02/18 00:34:25;;;;;;;0.93;0.93;;;8.20;99.90;;;;;;5052569;28;20325;-85
2023/02/18 00:36:51;;;;;;;2.00;1.27;;;8.20;99.90;;;;;;5052911;28;20208;-84
2023/02/18 00:39:17;;;;;;;1.43;1.33;;;8.20;99.90;;;;;;5036414;28;20185;-88
2023/02/18 00:41:42;;;;;;;0.70;0.70;;;8.20;99.90;;;;;;5035107;28;20259;-85
2023/02/18 00:44:09;;;;;;;0.80;0.80;;;8.10;99.90;;;;;;5051470;28;20242;-87
2023/02/18 00:46:35;;;;;;;3.03;1.10;;;8.10;99.90;;;;;;5034844;28;20200;-86
2023/02/18 00:49:02;;;;;;;3.43;2.73;;;8.10;99.90;;;;;;5069061;28;20662;-85
2023/02/18 00:51:28;;;;;;;6.07;1.20;;;8.10;99.90;;;;;;5035389;28;20273;-86
2023/02/18 00:53:53;;;;;;;1.50;0.63;;;8.10;99.90;;;;;;5052436;28;20264;-84
2023/02/18 00:56:20;;;;;;;2.53;1.70;;;8.10;99.90;;;;;;5036193;28;20212;-89
2023/02/18 00:58:46;;;;;;;0.77;0.77;;;8.10;99.90;;;;;;5036055;28;20694;-87
2023/02/18 01:01:12;;;;;;;1.40;0.73;;;8.20;99.90;;;;;;5052715;28;20182;-86
2023/02/18 01:03:39;;;;;;;3.60;1.33;;;8.20;99.90;;;;;;5035785;28;20209;-84
2023/02/18 01:06:06;;;;;;;2.07;0.57;;;8.20;99.90;;;;;;5070433;28;20534;-88
2023/02/18 01:08:33;;;;;;;2.20;2.00;;;8.20;99.90;;;;;;5052336;28;20201;-90
2023/02/18 01:11:00;;;;;;;0.60;0.50;;;8.20;99.90;;;;;;5070273;28;20269;-86
2023/02/18 01:13:26;;;;;;;0.87;0.87;;;8.20;99.90;;;;;;5052700;28;20232;-88
2023/02/18 01:15:52;;;;;;;0.53;0.53;;;8.30;99.90;;;;;;5070295;28;20707;-86
2023/02/18 01:18:19;;;;;;;1.43;0.83;;;8.30;99.90;;;;;;5052497;28;20209;-84
2023/02/18 01:20:45;;;;;;;1.30;1.30;;;8.30;99.90;;;;;;5052474;28;20196;-85
2023/02/18 01:23:12;;;;;;;3.70;0.87;;;8.30;99.90;;;;;;5052262;28;20271;-84
2023/02/18 01:25:38;;;;;;;2.17;0.73;;;8.30;99.90;;;;;;5052019;28;20784;-89
2023/02/18 01:28:05;;;;;;;3.57;1.97;;;8.40;99.90;;;;;;5035965;28;20178;-90
2023/02/18 01:30:31;;;;;;;1.70;1.60;;;8.40;99.90;;;;;;5069988;28;20235;-88
2023/02/18 01:32:57;;;;;;;4.37;1.60;;;8.40;99.90;;;;;;5035502;28;20178;-85
2023/02/18 01:35:23;;;;;;;0.97;0.50;;;8.50;99.90;;;;;;5035342;28;20233;-88
2023/02/18 01:37:49;;;;;;;9.80;1.13;;;8.50;99.90;;;;;;5070140;28;20227;-87
2023/02/18 01:40:18;;;;;;;0.57;0.40;;;8.40;99.90;;;;;;5035205;28;20370;-84
2023/02/18 01:42:44;;;;;;;3.70;0.70;;;8.50;99.90;;;;;;5069266;28;20209;-91
2023/02/18 01:45:36;;;;;;;5.10;1.23;;;8.50;99.90;;;;;;5052162;28;20188;-89
2023/02/18 01:48:16;;;;;;;0.40;0.40;;;8.50;99.90;;;;;;5052121;28;20181;-89
2023/02/18 01:50:49;;;;;;;1.03;0.97;;;8.50;99.90;;;;;;5051889;28;20735;-85
2023/02/18 01:53:20;;;;;;;8.27;1.67;;;8.50;99.90;;;;;;5052111;28;20174;-84
2023/02/18 01:55:47;;;;;;;7.93;1.27;;;8.50;99.90;;;;;;5070097;28;20567;-85
2023/02/18 01:58:14;;;;;;;1.17;0.53;;;8.50;99.90;;;;;;5019289;28;20182;-84
2023/02/18 02:00:40;;;;;;;3.13;2.83;;;8.50;99.90;;;;;;5069778;28;20646;-84
2023/02/18 02:03:05;;;;;;;1.07;1.00;;;8.50;99.90;;;;;;5052489;28;20225;-85
2023/02/18 02:05:33;;;;;;;0.70;0.70;;;8.50;99.90;;;;;;5019091;28;20815;-85
2023/02/18 02:08:00;;;;;;;2.20;1.87;;;8.50;99.90;;;;;;5052084;28;20185;-90
2023/02/18 02:10:43;;;;;;;0.83;0.83;;;8.50;99.90;;;;;;5052019;28;20180;-84
2023/02/18 02:13:15;;;;;;;0.70;0.70;;;8.60;99.90;;;;;;5069837;28;20174;-84
2023/02/18 02:15:44;;;;;;;10.90;1.10;;;8.60;99.90;;;;;;5051736;28;20615;-84
2023/02/18 02:18:25;;;;;;;8.17;2.13;;;8.60;99.90;;;;;;5052078;28;20182;-85
2023/02/18 02:21:24;;;;;;;3.07;0.83;;;8.60;99.90;;;;;;5052142;28;20248;-87
2023/02/18 02:24:31;;;;;;;1.37;1.27;;;8.60;99.90;;;;;;5070414;28;20189;-85
2023/02/18 02:27:03;;;;;;;0.53;0.53;;;8.60;99.90;;;;;;5069166;28;20178;-86
2023/02/18 02:29:38;;;;;;;1.67;1.57;;;8.60;99.90;;;;;;5051619;28;20181;-85
2023/02/18 02:32:03;;;;;;;0.30;0.30;;;8.60;99.90;;;;;;5069480;28;20165;-84
2023/02/18 02:34:29;;;;;;;1.60;1.50;;;8.60;99.90;;;;;;5047858;28;20687;-85
2023/02/18 02:37:13;;;;;;;2.37;1.67;;;8.60;99.90;;;;;;5049754;28;20647;-88
2023/02/18 02:40:03;;;;;;;1.73;1.67;;;8.70;99.90;;;;;;5048021;28;20166;-87
2023/02/18 02:42:53;;;;;;;0.60;0.60;;;8.60;99.90;;;;;;5047949;28;20547;-84
2023/02/18 02:45:42;;;;;;;2.33;0.57;;;8.60;99.90;;;;;;5049626;28;20170;-84
2023/02/18 02:48:42;;;;;;;0.57;0.57;;;8.60;99.90;;;;;;5049408;28;20170;-89
2023/02/18 02:51:17;;;;;;;0.37;0.37;;;8.60;99.90;;;;;;5048276;28;20378;-89
2023/02/18 02:53:43;;;;;;;0.67;0.67;;;8.60;99.90;;;;;;5052200;28;20171;-84
2023/02/18 02:56:17;;;;;;;3.97;1.33;;;8.70;99.90;;;;;;5051576;28;20273;-84
2023/02/18 02:58:45;;;;;;;11.80;1.13;;;8.70;99.90;;;;;;5052808;28;20159;-85
2023/02/18 03:01:22;;;;;;;1.37;1.27;;;8.70;99.90;;;;;;5052935;28;20174;-84
2023/02/18 03:04:02;;;;;;;0.97;0.90;;;8.70;99.90;;;;;;5051537;28;20683;-87
2023/02/18 03:07:02;;;;;;;1.20;0.60;;;8.70;99.90;;;;;;5051555;28;20265;-84
2023/02/18 03:09:37;;;;;;;4.33;1.03;;;8.70;99.90;;;;;;5052437;28;20196;-85
2023/02/18 03:12:29;;;;;;;5.60;1.27;;;8.70;99.90;;;;;;5052437;28;20185;-84
2023/02/18 03:15:22;;;;;;;2.47;2.37;;;8.70;99.90;;;;;;5051406;28;20174;-85
2023/02/18 03:18:02;;;;;;;2.43;1.17;;;8.70;99.90;;;;;;5052412;28;20598;-86
2023/02/18 03:20:35;;;;;;;1.33;1.00;;;8.70;99.90;;;;;;5052645;28;20253;-87
2023/02/18 03:23:05;;;;;;;2.53;0.50;;;8.70;99.90;;;;;;5051081;28;20225;-84
2023/02/18 03:25:34;;;;;;;11.93;1.43;;;8.70;99.90;;;;;;5051993;28;20178;-87
2023/02/18 03:28:17;;;;;;;1.07;1.07;;;8.80;99.90;;;;;;5050851;28;20265;-84
2023/02/18 03:30:54;;;;;;;1.10;0.87;;;8.80;99.90;;;;;;5050593;28;20220;-85
2023/02/18 03:33:26;;;;;;;8.93;1.20;;;8.80;99.90;;;;;;5052189;28;20174;-85
2023/02/18 03:35:53;;;;;;;1.63;1.30;;;8.80;99.90;;;;;;5050446;28;20265;-88
2023/02/18 03:38:30;;;;;;;4.57;0.93;;;8.90;99.90;;;;;;5018093;28;20186;-89
2023/02/18 03:40:56;;;;;;;3.53;1.10;;;8.90;99.90;;;;;;5052216;28;20174;-85
2023/02/18 03:43:23;;;;;;;3.33;1.33;;;8.90;99.90;;;;;;5050639;28;20308;-84
2023/02/18 03:45:48;;;;;;;0.30;0.30;;;8.90;99.90;;;;;;5050954;28;20763;-84
2023/02/18 03:48:14;;;;;;;0.97;0.97;;;9.00;99.90;;;;;;5050852;28;20189;-84
2023/02/18 03:50:40;;;;;;;6.53;2.07;;;8.90;99.90;;;;;;5034025;28;20241;-86
2023/02/18 03:53:05;;;;;;;0.30;0.30;;;9.00;99.90;;;;;;5034381;28;20186;-84
2023/02/18 03:55:31;;;;;;;1.60;0.50;;;9.00;99.90;;;;;;5051739;28;20188;-84
2023/02/18 03:57:57;;;;;;;0.57;0.47;;;9.00;99.90;;;;;;5050696;28;20189;-84
2023/02/18 04:00:23;;;;;;;1.43;0.83;;;9.00;99.90;;;;;;5049651;28;20214;-86
2023/02/18 04:02:48;;;;;;;9.13;0.87;;;9.00;99.90;;;;;;5049517;28;20210;-91
2023/02/18 04:05:14;;;;;;;2.53;0.60;;;9.00;99.90;;;;;;5048807;28;20209;-86
2023/02/18 04:07:40;;;;;;;0.83;0.83;;;9.00;99.90;;;;;;5048209;28;20670;-87
2023/02/18 04:10:07;;;;;;;2.13;1.23;;;9.00;99.90;;;;;;5015573;28;20308;-90
2023/02/18 04:12:33;;;;;;;0.87;0.67;;;9.00;99.90;;;;;;5015361;28;20186;-85
2023/02/18 04:14:59;;;;;;;0.83;0.83;;;8.90;99.90;;;;;;5048245;28;20619;-91
2023/02/18 04:17:24;;;;;;;3.37;0.87;;;9.00;99.90;;;;;;5032026;28;20232;-84
2023/02/18 04:19:50;;;;;;;1.00;1.00;;;8.90;99.90;;;;;;5031534;28;20194;-86
2023/02/18 04:22:16;;;;;;;0.70;0.70;;;8.90;99.90;;;;;;5049405;28;20210;-88
2023/02/18 04:24:42;;;;;;;4.77;0.80;;;8.90;99.90;;;;;;5048590;28;20182;-87
2023/02/18 04:27:07;;;;;;;1.33;0.80;;;8.80;99.90;;;;;;5051264;28;20174;-91
2023/02/18 04:29:33;;;;;;;0.63;0.63;;;8.90;99.90;;;;;;5016881;28;20270;-84
2023/02/18 04:31:59;;;;;;;1.33;0.93;;;8.80;99.90;;;;;;5049996;28;20178;-85
2023/02/18 04:34:25;;;;;;;5.57;1.43;;;8.80;99.90;;;;;;5032857;28;20287;-84
2023/02/18 04:36:51;;;;;;;2.87;1.37;;;8.80;99.90;;;;;;5049411;28;20642;-88
2023/02/18 04:39:16;;;;;;;0.97;0.93;;;8.80;99.90;;;;;;5049890;28;20181;-89
2023/02/18 04:41:42;;;;;;;0.50;0.30;;;8.70;99.90;;;;;;5017325;28;20178;-84
2023/02/18 04:44:08;;;;;;;1.33;1.33;;;8.80;99.90;;;;;;5049967;28;20189;-88
2023/02/18 04:46:33;;;;;;;2.43;0.77;;;8.70;99.90;;;;;;5015716;28;20201;-88
2023/02/18 04:48:59;;;;;;;0.80;0.70;;;8.70;99.90;;;;;;5031849;28;20174;-88
2023/02/18 04:51:25;;;;;;;3.67;1.40;;;8.70;99.90;;;;;;5031484;28;20231;-86
2023/02/18 04:53:50;;;;;;;4.70;1.17;;;8.60;99.90;;;;;;5014650;28;20632;-85
2023/02/18 04:56:16;;;;;;;4.47;1.80;;;8.60;99.90;;;;;;5032196;28;20178;-87
2023/02/18 04:58:42;;;;;;;10.00;2.63;;;8.60;99.90;;;;;;5015915;28;20178;-84
2023/02/18 05:01:07;;;;;;;1.50;1.20;;;8.60;99.90;;;;;;5048581;28;20174;-85
2023/02/18 05:03:33;;;;;;;1.23;1.07;;;8.60;99.90;;;;;;5048218;28;20694;-86
2023/02/18 05:05:59;;;;;;;3.07;1.87;;;8.70;99.90;;;;;;5048235;28;20759;-89
2023/02/18 05:08:25;;;;;;;4.03;2.07;;;8.70;99.90;;;;;;5032087;28;20188;-89
2023/02/18 05:10:51;;;;;;;3.13;1.57;;;8.70;99.90;;;;;;5049180;28;20197;-85
2023/02/18 05:13:16;;;;;;;4.03;2.47;;;8.80;99.90;;;;;;5049496;28;20182;-88
2023/02/18 05:15:42;;;;;;;3.00;2.80;;;8.80;99.90;;;;;;5032923;28;20538;-85
2023/02/18 05:18:08;;;;;;;5.47;3.80;;;8.80;99.90;;;;;;5049316;28;20189;-84
2023/02/18 05:20:34;;;;;;;6.27;2.93;;;8.80;99.90;;;;;;5032588;28;20228;-88
2023/02/18 05:22:59;;;;;;;2.87;1.70;;;8.80;99.90;;;;;;5048891;28;20256;-84
2023/02/18 05:25:25;;;;;;;6.33;2.57;;;8.80;99.90;;;;;;5032732;28;20178;-90
2023/02/18 05:27:51;;;;;;;5.70;2.83;;;8.90;99.90;;;;;;5032373;28;20273;-84
2023/02/18 05:30:17;;;;;;;5.33;3.23;;;8.90;99.90;;;;;;5032538;28;20239;-85
2023/02/18 05:32:43;;;;;;;2.67;1.70;;;8.90;99.90;;;;;;5032745;28;20193;-84
2023/02/18 05:35:09;;;;;;;4.27;3.20;;;8.90;99.90;;;;;;5016023;28;20709;-84
2023/02/18 05:37:35;;;;;;;4.03;2.10;;;9.00;99.90;;;;;;5050293;28;20182;-91
2023/02/18 05:40:01;;;;;;;3.50;2.70;;;9.00;99.90;;;;;;5048961;28;20177;-85
2023/02/18 05:42:27;;;;;;;3.47;2.03;;;9.00;99.90;;;;;;5049800;28;20293;-86
2023/02/18 05:44:52;;;;;;;7.57;2.53;;;9.10;99.90;;;;;;5032295;28;20274;-87
2023/02/18 05:47:18;;;;;;;4.17;3.77;;;9.10;99.90;;;;;;5050084;28;20189;-88
2023/02/18 05:49:44;;;;;;;3.67;3.13;;;9.10;99.90;;;;;;5032840;28;20181;-87
2023/02/18 05:52:11;;;;;;;3.83;2.87;;;9.20;99.90;;;;;;5016278;28;20182;-89
2023/02/18 05:54:38;;;;;;;3.23;2.80;;;9.40;99.90;;;;;;5049133;28;20182;-84
2023/02/18 05:57:04;;;;;;;6.23;3.80;;;9.50;99.90;;;;;;5048867;28;20198;-88
2023/02/18 05:59:29;;;;;;;3.93;3.53;;;9.50;99.90;;;;;;5032468;28;20182;-88
2023/02/18 06:01:55;;;;;;;10.70;5.97;;;9.60;99.90;;;;;;5032066;28;20352;-87
2023/02/18 06:04:21;;;;;;;4.13;3.43;;;9.70;99.90;;;;;;5049904;28;20190;-84
2023/02/18 06:06:47;;;;;;;9.07;2.97;;;9.80;99.90;;;;;;5050365;28;20284;-84
2023/02/18 06:09:13;;;;;;;4.93;3.60;;;9.80;99.90;;;;;;5048555;28;20639;-90
2023/02/18 06:11:39;;;;;;;7.70;3.77;;;9.90;99.90;;;;;;5048401;28;20271;-91
2023/02/18 06:14:04;;;;;;;7.27;4.40;;;9.90;99.90;;;;;;5032087;28;20620;-86
2023/02/18 06:16:31;;;;;;;8.87;4.97;;;9.90;99.90;;;;;;5050005;28;20206;-84
2023/02/18 06:18:57;;;;;;;10.37;4.93;;;10.00;99.90;;;;;;5049976;28;20182;-84
2023/02/18 06:21:23;;;;;;;6.10;2.70;;;10.10;99.90;;;;;;5048688;28;20174;-84
2023/02/18 06:23:49;;;;;;;9.63;5.13;;;10.10;99.90;;;;;;5032004;28;20267;-89
2023/02/18 06:26:15;;;;;;;13.17;2.97;;;10.10;99.90;;;;;;5050091;28;20181;-86
2023/02/18 06:28:40;;;;;;;10.83;4.47;;;10.20;99.90;;;;;;5052366;28;20184;-89
2023/02/18 06:31:06;;;;;;;8.13;4.97;;;10.10;99.90;;;;;;5036148;28;20186;-85
2023/02/18 06:33:32;;;;;;;5.67;3.93;;;10.10;99.90;;;;;;5019747;28;20186;-88
2023/02/18 06:36:10;;;;;;;6.67;3.60;;;10.20;99.90;;;;;;5052171;28;20237;-84
2023/02/18 06:38:38;;;;;;;7.60;5.90;;;10.20;99.90;;;;;;5052702;28;20616;-84
2023/02/18 06:41:05;;;;;;;9.20;3.60;;;10.20;99.90;;;;;;5053779;28;20178;-84
2023/02/18 06:43:30;;;;;;;3.97;2.63;;;10.20;99.90;;;;;;5052173;28;20616;-86
2023/02/18 06:45:56;;;;;;;5.70;2.93;;;10.20;99.90;;;;;;5052471;28;20213;-85
2023/02/18 06:48:22;;;;;;;3.23;1.93;;;10.30;99.90;;;;;;5052379;28;20530;-86
2023/02/18 06:50:48;;;;;;;6.90;4.20;;;10.20;99.90;;;;;;5052602;28;20185;-85
2023/02/18 06:53:15;;;;;;;5.67;2.13;;;10.30;99.90;;;;;;5052228;28;20174;-84
2023/02/18 06:55:42;;;;;;;3.60;2.33;;;10.30;99.90;;;;;;5035731;28;20186;-84
2023/02/18 06:58:12;;;;;;;6.33;3.67;;;10.20;99.90;;;;;;5052228;28;20174;-85
2023/02/18 07:00:38;;;;;;;4.30;2.87;;;10.20;99.90;;;;;;5052667;28;20178;-92
2023/02/18 07:03:04;;;;;;;2.13;1.77;;;10.20;99.90;;;;;;5035350;28;20296;-86
2023/02/18 07:05:30;;;;;;;4.57;3.30;;;10.20;99.90;;;;;;5051140;28;20213;-84
2023/02/18 07:07:56;;;;;;;5.33;2.87;;;10.20;99.90;;;;;;5051214;28;20182;-85
2023/02/18 07:10:22;;;;;;;4.13;2.50;;;10.20;99.90;;;;;;5018680;28;20194;-86
2023/02/18 07:12:48;;;;;;;7.00;4.03;;;10.20;99.90;;;;;;5051815;28;20297;-88
2023/02/18 07:15:14;;;;;;;8.13;3.93;;;10.30;99.90;;;;;;5052121;28;20273;-86
2023/02/18 07:17:40;;;;;;;5.47;2.33;;;10.20;99.90;;;;;;5035483;28;20189;-84
2023/02/18 07:20:08;;;;;;;4.80;3.10;;;10.20;99.90;;;;;;5035362;28;20174;-90
2023/02/18 07:22:33;;;;;;;2.40;2.13;;;10.20;99.90;;;;;;5051686;28;20293;-85
2023/02/18 07:24:59;;;;;;;2.07;1.83;;;10.20;99.90;;;;;;5018400;28;20668;-84
2023/02/18 07:27:25;;;;;;;8.33;2.77;;;10.10;99.90;;;;;;5035238;28;20182;-84
2023/02/18 07:29:51;;;;;;;2.17;1.87;;;10.20;99.90;;;;;;5051855;28;20182;-86
2023/02/18 07:32:18;;;;;;;4.60;2.70;;;10.20;99.90;;;;;;5051924;28;20765;-86
2023/02/18 07:34:44;;;;;;;3.27;2.97;;;10.20;99.90;;;;;;5051516;28;20180;-86
2023/02/18 07:37:11;;;;;;;9.30;2.03;;;10.10;99.90;;;;;;5051054;28;20267;-85
2023/02/18 07:39:41;;;;;;;5.40;2.07;;;10.20;99.90;;;;;;5052651;28;20181;-85
2023/02/18 07:42:07;;;;;;;10.30;2.50;;;10.10;99.90;;;;;;5051697;28;20229;-85
2023/02/18 07:44:37;;;;;;;7.37;1.97;;;10.10;99.90;;;;;;5035150;28;20189;-88
2023/02/18 07:47:04;;;;;;;8.30;2.00;;;10.20;99.90;;;;;;5051840;28;20181;-84
2023/02/18 07:49:34;;;;;;;4.70;1.13;;;10.20;99.90;;;;;;5051533;28;20173;-87
2023/02/18 07:52:00;;;;;;;4.93;1.93;;;10.20;99.90;;;;;;5035217;28;20186;-84
2023/02/18 07:54:26;;;;;;;7.57;2.17;;;10.20;99.90;;;;;;5035038;28;20456;-87
2023/02/18 07:56:52;;;;;;;3.07;2.87;;;10.20;99.90;;;;;;5035135;28;20392;-85
2023/02/18 07:59:17;;;;;;;2.17;1.97;;;10.20;99.90;;;;;;5052934;28;20174;-88
2023/02/18 08:01:43;;;;;;;6.10;2.90;;;10.20;99.90;;;;;;5050773;28;20228;-84
2023/02/18 08:04:09;;;;;;;5.17;2.93;;;10.20;99.90;;;;;;5050821;28;20736;-85
2023/02/18 08:06:38;;;;;;;6.40;1.73;;;10.10;99.90;;;;;;5051543;28;20170;-83
2023/02/18 08:09:04;;;;;;;5.07;2.63;;;10.10;99.90;;;;;;5050133;28;20231;-85
2023/02/18 08:11:30;;;;;;;1.83;1.73;;;10.10;99.90;;;;;;5050399;28;20174;-87
2023/02/18 08:13:56;;;;;;;5.30;2.00;;;10.10;99.90;;;;;;5051698;28;20267;-84
2023/02/18 08:16:22;;;;;;;2.47;0.70;;;10.10;99.90;;;;;;5033148;28;20236;-86
2023/02/18 08:18:49;;;;;;;3.40;0.80;;;10.00;99.90;;;;;;5033945;28;20259;-83
2023/02/18 08:21:17;;;;;;;1.57;1.27;;;10.00;99.90;;;;;;5051308;28;20188;-83
2023/02/18 08:23:43;;;;;;;2.20;1.67;;;10.00;99.90;;;;;;5050125;28;20206;-88
2023/02/18 08:26:09;;;;;;;12.43;1.77;;;10.00;99.90;;;;;;5049884;28;20682;-83
2023/02/18 08:28:35;;;;;;;1.97;1.80;;;10.00;99.90;;;;;;5050074;28;20546;-89
2023/02/18 08:31:01;;;;;;;2.47;1.43;;;10.00;99.90;;;;;;5016944;28;20795;-83
2023/02/18 08:33:26;;;;;;;1.43;1.33;;;10.00;99.90;;;;;;5050031;28;20178;-84
2023/02/18 08:35:53;;;;;;;2.83;1.67;;;9.90;99.90;;;;;;5056692;28;20225;-83
2023/02/18 08:38:20;;;;;;;5.43;1.03;;;9.90;99.90;;;;;;5036422;28;20205;-84
2023/02/18 08:40:46;;;;;;;0.60;0.60;;;9.90;99.90;;;;;;5052978;28;20204;-86
2023/02/18 08:43:12;;;;;;;6.60;2.53;;;9.90;99.90;;;;;;5053008;28;20213;-83
2023/02/18 08:45:38;;;;;;;0.50;0.50;;;9.90;99.90;;;;;;5052913;28;20209;-84
2023/02/18 08:48:06;;;;;;;1.90;1.80;;;9.90;99.90;;;;;;5054870;28;20193;-87
2023/02/18 08:50:32;;;;;;;0.60;0.60;;;9.90;99.90;;;;;;5053479;28;20184;-90
2023/02/18 08:53:02;;;;;;;0.43;0.43;;;10.00;99.90;;;;;;5053780;28;20185;-86
2023/02/18 08:55:32;;;;;;;0.27;0.27;;;10.00;99.90;;;;;;5022290;28;20182;-86
2023/02/18 08:57:59;;;;;;;3.77;1.17;;;10.00;99.90;;;;;;5053947;28;20170;-86
2023/02/18 09:00:25;;;;;;;6.13;0.30;;;10.10;99.90;;;;;;5072189;28;20610;-89
2023/02/18 09:02:51;;;;;;;3.60;0.77;;;10.10;99.90;;;;;;5053663;28;20221;-84
2023/02/18 09:05:17;;;;;;;16.87;2.07;;;10.10;99.90;;;;;;5071660;28;20268;-84
2023/02/18 09:07:43;;;;;;;1.50;1.40;;;10.10;99.90;;;;;;5053893;28;20181;-87
2023/02/18 09:10:09;;;;;;;12.10;1.23;;;10.10;99.90;;;;;;5052411;28;20768;-86
2023/02/18 09:12:38;;;;;;;0.50;0.50;;;10.10;99.90;;;;;;5036146;28;20181;-87
2023/02/18 09:15:05;;;;;;;1.13;1.13;;;10.10;99.90;;;;;;5036359;28;20268;-85
2023/02/18 09:17:30;;;;;;;1.53;0.63;;;10.10;99.90;;;;;;5052536;28;20186;-84
2023/02/18 09:19:56;;;;;;;0.20;0.20;;;10.10;99.90;;;;;;5052586;28;20173;-88
2023/02/18 09:22:23;;;;;;;0.73;0.50;;;10.10;99.90;;;;;;5035741;28;20221;-86
2023/02/18 09:24:49;;;;;;;5.43;1.93;;;10.10;99.90;;;;;;5052519;28;20173;-89
2023/02/18 09:27:14;;;;;;;0.43;0.43;;;10.10;99.90;;;;;;5035761;28;20652;-85
2023/02/18 09:29:41;;;;;;;3.10;0.67;;;10.10;99.90;;;;;;5052349;28;20215;-86
2023/02/18 09:32:11;;;;;;;0.47;0.47;;;10.20;99.90;;;;;;5070224;28;20775;-88
2023/02/18 09:34:37;;;;;;;5.90;1.03;;;10.30;99.90;;;;;;5070236;28;20182;-85
2023/02/18 09:37:03;;;;;;;8.97;1.70;;;10.30;99.90;;;;;;5052099;28;20274;-89
2023/02/18 09:39:28;;;;;;;9.83;1.30;;;10.40;99.90;;;;;;5052769;28;20698;-86
2023/02/18 09:42:04;;;;;;;8.40;0.90;;;10.40;99.90;;;;;;5069998;28;20188;-87
2023/02/18 09:44:34;;;;;;;2.40;1.83;;;10.50;99.90;;;;;;5070537;28;20176;-88
2023/02/18 09:47:10;;;;;;;3.03;0.97;;;10.50;99.90;;;;;;5052531;28;20578;-88
2023/02/18 09:49:59;;;;;;;0.73;0.73;;;10.60;99.90;;;;;;5051959;28;20174;-90
2023/02/18 09:52:30;;;;;;;5.87;0.50;;;10.70;99.90;;;;;;5068698;28;20246;-88
2023/02/18 09:54:56;;;;;;;2.27;0.67;;;10.70;99.90;;;;;;5051875;28;20176;-89
2023/02/18 09:57:28;;;;;;;2.40;2.23;;;10.70;99.90;;;;;;5019084;28;20186;-87
2023/02/18 10:00:00;;;;;;;6.03;1.23;;;10.80;99.90;;;;;;5070627;28;20170;-86
2023/02/18 10:02:27;;;;;;;1.03;0.60;;;10.90;99.90;;;;;;5053636;28;20817;-86
2023/02/18 10:04:54;;;;;;;1.50;0.67;;;10.90;99.90;;;;;;5073606;28;20177;-89
2023/02/18 10:07:30;;;;;;;3.27;1.07;;;10.90;99.90;;;;;;5022925;28;20268;-86
2023/02/18 10:10:01;;;;;;;3.80;0.93;;;11.00;99.90;;;;;;5073346;28;20165;-84
2023/02/18 10:12:29;;;;;;;5.43;1.73;;;11.00;99.90;;;;;;5056595;28;20745;-85
2023/02/18 10:14:58;;;;;;;2.10;0.73;;;11.10;99.90;;;;;;5074399;28;20780;-87
2023/02/18 10:17:27;;;;;;;3.50;0.83;;;11.20;99.90;;;;;;5056946;28;20186;-85
2023/02/18 10:19:55;;;;;;;4.60;1.60;;;11.10;99.90;;;;;;5074337;28;20177;-89
2023/02/18 10:22:24;;;;;;;2.00;0.50;;;11.10;99.90;;;;;;5039173;28;20828;-89
2023/02/18 10:24:58;;;;;;;1.13;0.53;;;11.20;99.90;;;;;;5056425;28;20264;-90
2023/02/18 10:27:34;;;;;;;3.80;1.30;;;11.30;99.90;;;;;;5073623;28;20169;-85
2023/02/18 10:30:21;;;;;;;10.17;3.07;;;11.40;99.90;;;;;;5074040;28;20173;-85
2023/02/18 10:32:49;;;;;;;4.20;3.40;;;11.50;99.90;;;;;;5073239;28;20173;-88
2023/02/18 10:35:36;;;;;;;1.30;1.13;;;11.40;99.90;;;;;;5055423;28;20173;-86
2023/02/18 10:38:17;;;;;;;0.77;0.77;;;11.50;99.90;;;;;;5056139;28;20196;-90
2023/02/18 10:41:02;;;;;;;4.23;1.00;;;11.50;99.90;;;;;;5073863;28;20173;-86
2023/02/18 10:43:37;;;;;;;3.20;2.10;;;11.40;99.90;;;;;;5056380;28;20239;-84
2023/02/18 10:46:20;;;;;;;3.17;1.03;;;11.40;99.90;;;;;;5055415;28;20185;-91
2023/02/18 10:49:24;;;;;;;2.33;1.00;;;11.50;99.90;;;;;;5055638;28;20182;-88
2023/02/18 10:51:54;;;;;;;4.13;1.47;;;11.40;99.90;;;;;;5054811;28;20181;-89
2023/02/18 10:54:24;;;;;;;4.07;0.83;;;11.50;99.90;;;;;;5073294;28;20288;-88
2023/02/18 10:56:57;;;;;;;0.73;0.73;;;11.40;99.90;;;;;;5038898;28;20193;-88
2023/02/18 10:59:31;;;;;;;4.90;1.90;;;11.50;99.90;;;;;;5055906;28;20170;-86
2023/02/18 11:02:17;;;;;;;1.47;0.40;;;11.50;99.90;;;;;;5073756;28;20180;-85
2023/02/18 11:04:44;;;;;;;1.07;0.97;;;11.50;99.90;;;;;;5074122;28;20181;-87
2023/02/18 11:07:32;;;;;;;1.83;1.23;;;11.50;99.90;;;;;;5073375;28;20196;-84
2023/02/18 11:10:15;;;;;;;13.30;1.07;;;11.40;99.90;;;;;;5055631;28;20173;-87
2023/02/18 11:13:08;;;;;;;0.57;0.57;;;11.30;99.90;;;;;;5055376;28;20176;-86
2023/02/18 11:15:34;;;;;;;2.10;1.23;;;11.40;99.90;;;;;;5072954;28;20165;-87
2023/02/18 11:18:34;;;;;;;0.67;0.67;;;11.80;99.90;;;;;;5055315;28;20231;-84
2023/02/18 11:21:04;;;;;;;2.93;1.20;;;12.00;99.90;;;;;;5071712;28;20188;-91
2023/02/18 11:23:31;;;;;;;4.90;2.77;;;12.00;99.90;;;;;;5054810;28;20223;-86
2023/02/18 11:25:59;;;;;;;8.20;1.27;;;11.90;99.90;;;;;;5037984;28;20184;-84
2023/02/18 11:28:47;;;;;;;1.90;1.73;;;11.70;99.90;;;;;;5072815;28;20242;-86
2023/02/18 11:31:23;;;;;;;5.20;1.37;;;11.70;99.90;;;;;;5072170;28;20196;-88
2023/02/18 11:33:57;;;;;;;4.57;1.60;;;11.70;99.90;;;;;;5072415;28;20223;-85
2023/02/18 11:36:26;;;;;;;0.60;0.60;;;11.60;99.90;;;;;;5072035;28;20220;-84
2023/02/18 11:38:59;;;;;;;2.03;1.83;;;11.60;99.90;;;;;;5073485;28;20277;-90
2023/02/18 11:41:36;;;;;;;0.70;0.70;;;11.70;99.90;;;;;;5056220;28;20173;-84
2023/02/18 11:44:05;;;;;;;0.90;0.90;;;12.00;99.90;;;;;;5055048;28;20209;-86
2023/02/18 11:46:31;;;;;;;1.00;0.70;;;12.10;99.90;;;;;;5073435;28;20510;-89
2023/02/18 11:49:19;;;;;;;9.63;1.53;;;12.20;99.90;;;;;;5054600;28;20188;-85
2023/02/18 11:51:45;;;;;;;0.40;0.40;;;12.20;99.90;;;;;;5055187;28;20176;-83
2023/02/18 11:54:26;;;;;;;2.90;1.40;;;12.20;99.90;;;;;;5055611;28;20181;-84
2023/02/18 11:57:09;;;;;;;2.53;1.63;;;12.20;99.90;;;;;;5072157;28;20188;-90
2023/02/18 11:59:38;;;;;;;14.13;1.70;;;12.10;99.90;;;;;;5072918;28;20191;-85
2023/02/18 12:02:10;;;;;;;1.23;0.63;;;12.00;99.90;;;;;;5072200;28;20264;-86
2023/02/18 12:04:54;;;;;;;1.07;0.80;;;11.90;99.90;;;;;;5072235;28;20166;-85
2023/02/18 12:07:25;;;;;;;4.27;0.93;;;11.80;99.90;;;;;;5052757;28;20197;-91
2023/02/18 12:10:11;;;;;;;3.50;0.50;;;11.60;99.90;;;;;;5053108;28;20165;-92
2023/02/18 12:13:01;;;;;;;1.27;1.13;;;11.60;99.90;;;;;;5052937;28;20312;-86
2023/02/18 12:15:38;;;;;;;0.77;0.77;;;11.60;99.90;;;;;;5070798;28;20216;-86
2023/02/18 12:18:04;;;;;;;0.50;0.50;;;11.50;99.90;;;;;;5070807;28;20185;-88
2023/02/18 12:20:36;;;;;;;6.97;1.00;;;11.40;99.90;;;;;;5053489;28;20623;-86
2023/02/18 12:23:18;;;;;;;1.30;0.90;;;11.30;99.90;;;;;;5071209;28;20900;-87
2023/02/18 12:25:56;;;;;;;1.97;1.80;;;11.30;99.90;;;;;;5053778;28;20178;-84
2023/02/18 12:28:52;;;;;;;1.13;0.90;;;11.30;99.90;;;;;;5055755;28;20186;-84
2023/02/18 12:31:48;;;;;;;5.73;0.60;;;11.20;99.90;;;;;;5058929;28;20725;-84
2023/02/18 12:34:45;;;;;;;2.20;1.07;;;11.10;99.90;;;;;;5054903;28;20237;-85
2023/02/18 12:37:38;;;;;;;3.10;0.80;;;11.10;99.90;;;;;;5072012;28;20245;-85
2023/02/18 12:40:47;;;;;;;2.07;0.90;;;11.00;99.90;;;;;;5053002;28;20231;-84
2023/02/18 12:43:21;;;;;;;7.90;1.33;;;11.00;99.90;;;;;;5051769;28;20221;-89
2023/02/18 12:46:05;;;;;;;4.03;1.03;;;10.90;99.90;;;;;;5068985;28;20213;-90
2023/02/18 12:48:56;;;;;;;3.73;1.03;;;11.00;99.90;;;;;;5069824;28;20227;-84
2023/02/18 12:51:51;;;;;;;3.83;1.30;;;11.00;99.90;;;;;;5069404;28;20226;-86
2023/02/18 12:54:43;;;;;;;3.27;1.17;;;11.00;99.90;;;;;;4963486;28;20232;-88
2023/02/18 12:57:34;;;;;;;0.10;0.10;;;10.90;99.90;;;;;;5013316;28;20228;-84
2023/02/18 12:59:59;;;;;;;5.47;0.63;;;11.00;99.90;;;;;;5052252;28;20232;-85
2023/02/18 13:02:46;;;;;;;5.63;1.73;;;11.30;99.90;;;;;;5052109;28;20237;-86
2023/02/18 13:05:50;;;;;;;4.27;0.30;;;11.40;99.90;;;;;;5052006;28;20262;-88
2023/02/18 13:08:22;;;;;;;5.73;1.43;;;11.30;99.90;;;;;;4968354;28;20271;-85